Time,TemperatureF,DewpointF,PressureIn,WindDirection,WindDirectionDegrees,WindSpeedMPH,WindSpeedGustMPH,Humidity,HourlyPrecipIn,Conditions,Clouds,dailyrainin,SolarRadiationWatts/m^2,SoftwareType,DateUTC
2013-11-05 00:22:00,33.0,28.0,-100.00,East,100,0.0,5.0,80,0.00,,,0.00,0.000000,,2013-11-05 08:22:00,
2013-11-05 00:32:00,33.0,28.0,-100.00,East,100,0.0,5.0,80,0.00,,,0.00,0.000000,,2013-11-05 08:32:00,
2013-11-05 00:42:00,33.0,28.0,-100.00,East,100,0.0,5.0,80,0.00,,,0.00,0.000000,,2013-11-05 08:42:00,
2013-11-05 00:52:00,33.0,28.0,-100.00,East,100,0.0,5.0,80,0.00,,,0.00,0.000000,,2013-11-05 08:52:00,
2013-11-05 01:22:00,34.0,28.0,-100.00,ESE,105,0.0,6.0,79,0.00,,,0.00,0.000000,,2013-11-05 09:22:00,
2013-11-05 01:33:00,34.0,28.0,-100.00,ESE,105,0.0,6.0,79,0.00,,,0.00,0.000000,,2013-11-05 09:33:00,
2013-11-05 01:43:00,34.0,28.0,-100.00,ESE,105,0.0,6.0,79,0.00,,,0.00,0.000000,,2013-11-05 09:43:00,
2013-11-05 01:53:00,34.0,28.0,-100.00,ESE,105,0.0,6.0,79,0.00,,,0.00,0.000000,,2013-11-05 09:53:00,
2013-11-05 02:23:00,34.0,28.0,-100.00,East,81,0.0,5.0,77,0.00,,,0.00,0.000000,,2013-11-05 10:23:00,
2013-11-05 02:33:00,34.0,28.0,-100.00,East,81,0.0,5.0,77,0.00,,,0.00,0.000000,,2013-11-05 10:33:00,
2013-11-05 02:42:00,34.0,28.0,-100.00,East,81,0.0,5.0,77,0.00,,,0.00,0.000000,,2013-11-05 10:42:00,
2013-11-05 02:53:00,34.0,28.0,-100.00,East,81,0.0,5.0,77,0.00,,,0.00,0.000000,,2013-11-05 10:53:00,
2013-11-05 03:22:00,35.0,29.0,-100.00,ENE,73,0.0,6.0,78,0.00,,,0.00,0.000000,,2013-11-05 11:22:00,
2013-11-05 03:33:00,35.0,29.0,-100.00,ENE,73,0.0,6.0,78,0.00,,,0.00,0.000000,,2013-11-05 11:33:00,
2013-11-05 03:42:00,35.0,29.0,-100.00,ENE,73,0.0,6.0,78,0.00,,,0.00,0.000000,,2013-11-05 11:42:00,
2013-11-05 03:52:00,35.0,29.0,-100.00,ENE,73,0.0,6.0,78,0.00,,,0.00,0.000000,,2013-11-05 11:52:00,
2013-11-05 04:22:00,34.0,28.0,-100.00,East,92,0.0,4.0,80,0.00,,,0.00,0.000000,,2013-11-05 12:22:00,
2013-11-05 04:31:00,34.0,28.0,-100.00,East,92,0.0,4.0,80,0.00,,,0.00,0.000000,,2013-11-05 12:31:00,
2013-11-05 04:42:00,34.0,28.0,-100.00,East,92,0.0,4.0,80,0.00,,,0.00,0.000000,,2013-11-05 12:42:00,
2013-11-05 04:52:00,34.0,28.0,-100.00,East,92,0.0,4.0,80,0.00,,,0.00,0.000000,,2013-11-05 12:52:00,
2013-11-05 05:21:00,33.0,28.0,-100.00,East,95,0.0,4.0,82,0.00,,,0.00,0.000000,,2013-11-05 13:21:00,
2013-11-05 05:32:00,33.0,28.0,-100.00,East,95,0.0,4.0,82,0.00,,,0.00,0.000000,,2013-11-05 13:32:00,
2013-11-05 05:42:00,33.0,28.0,-100.00,East,95,0.0,4.0,82,0.00,,,0.00,0.000000,,2013-11-05 13:42:00,
2013-11-05 05:52:00,33.0,28.0,-100.00,East,95,0.0,4.0,82,0.00,,,0.00,0.000000,,2013-11-05 13:52:00,
2013-11-05 06:22:00,33.0,29.0,-100.00,East,89,0.0,2.0,84,0.00,,,0.00,0.000000,,2013-11-05 14:22:00,
2013-11-05 06:32:00,33.0,29.0,-100.00,East,89,0.0,2.0,84,0.00,,,0.00,0.000000,,2013-11-05 14:32:00,
2013-11-05 06:42:00,33.0,29.0,-100.00,East,89,0.0,2.0,84,0.00,,,0.00,0.000000,,2013-11-05 14:42:00,
2013-11-05 06:52:00,33.0,29.0,-100.00,East,89,0.0,2.0,84,0.00,,,0.00,0.000000,,2013-11-05 14:52:00,
2013-11-05 07:21:00,34.0,28.0,-100.00,ESE,104,0.0,3.0,79,0.00,,,0.00,7.000000,,2013-11-05 15:21:00,
2013-11-05 07:33:00,34.0,28.0,-100.00,ESE,104,0.0,3.0,79,0.00,,,0.00,7.000000,,2013-11-05 15:33:00,
2013-11-05 07:43:00,34.0,28.0,-100.00,ESE,104,0.0,3.0,79,0.00,,,0.00,7.000000,,2013-11-05 15:43:00,
2013-11-05 07:53:00,34.0,28.0,-100.00,ESE,104,0.0,3.0,79,0.00,,,0.00,7.000000,,2013-11-05 15:53:00,
2013-11-05 09:52:00,54.0,31.0,-100.00,WSW,255,3.0,7.0,41,-99.99,,,0.00,429.000000,,2013-11-05 17:52:00,
2013-11-05 11:22:00,60.0,32.0,-100.00,WSW,244,3.0,7.0,34,-99.99,,,0.00,750.000000,,2013-11-05 19:22:00,
2013-11-05 11:32:00,60.0,32.0,-100.00,WSW,244,3.0,7.0,34,-99.99,,,0.00,750.000000,,2013-11-05 19:32:00,
2013-11-05 11:42:00,60.0,32.0,-100.00,WSW,244,3.0,7.0,34,-99.99,,,0.00,750.000000,,2013-11-05 19:42:00,
2013-11-05 11:52:00,60.0,32.0,-100.00,WSW,244,3.0,7.0,34,-99.99,,,0.00,750.000000,,2013-11-05 19:52:00,
2013-11-05 12:22:00,62.0,32.0,-100.00,SE,136,3.0,8.0,32,0.00,,,0.00,798.000000,,2013-11-05 20:22:00,
2013-11-05 12:32:00,62.0,32.0,-100.00,SE,136,3.0,8.0,32,0.00,,,0.00,798.000000,,2013-11-05 20:32:00,
2013-11-05 12:42:00,62.0,32.0,-100.00,SE,136,3.0,8.0,32,0.00,,,0.00,798.000000,,2013-11-05 20:42:00,
2013-11-05 12:52:00,62.0,32.0,-100.00,SE,136,3.0,8.0,32,0.00,,,0.00,798.000000,,2013-11-05 20:52:00,
2013-11-05 13:22:00,61.0,30.0,-100.00,WSW,247,3.0,9.0,31,0.00,,,0.00,773.000000,,2013-11-05 21:22:00,
2013-11-05 13:33:00,61.0,30.0,-100.00,WSW,247,3.0,9.0,31,0.00,,,0.00,773.000000,,2013-11-05 21:33:00,
2013-11-05 13:44:00,61.0,30.0,-100.00,WSW,247,3.0,9.0,31,0.00,,,0.00,773.000000,,2013-11-05 21:44:00,
2013-11-05 13:54:00,61.0,30.0,-100.00,WSW,247,3.0,9.0,31,0.00,,,0.00,773.000000,,2013-11-05 21:54:00,
2013-11-05 14:23:00,62.0,30.0,-100.00,SW,226,4.0,9.0,30,0.00,,,0.00,682.000000,,2013-11-05 22:23:00,
2013-11-05 14:34:00,62.0,30.0,-100.00,SW,226,4.0,9.0,30,0.00,,,0.00,682.000000,,2013-11-05 22:34:00,
2013-11-05 14:43:00,62.0,30.0,-100.00,SW,226,4.0,9.0,30,0.00,,,0.00,682.000000,,2013-11-05 22:43:00,
2013-11-05 14:53:00,62.0,30.0,-100.00,SW,226,4.0,9.0,30,0.00,,,0.00,682.000000,,2013-11-05 22:53:00,
2013-11-05 15:22:00,62.0,31.0,-100.00,WSW,238,4.0,10.0,31,0.00,,,0.00,512.000000,,2013-11-05 23:22:00,
2013-11-05 15:34:00,62.0,31.0,-100.00,WSW,238,4.0,10.0,31,0.00,,,0.00,512.000000,,2013-11-05 23:34:00,
2013-11-05 15:42:00,62.0,31.0,-100.00,WSW,238,4.0,10.0,31,0.00,,,0.00,512.000000,,2013-11-05 23:42:00,
2013-11-05 15:53:00,62.0,31.0,-100.00,WSW,238,4.0,10.0,31,0.00,,,0.00,512.000000,,2013-11-05 23:53:00,
2013-11-05 16:22:00,59.0,30.0,-100.00,SW,223,3.0,11.0,33,0.00,,,0.00,310.000000,,2013-11-06 00:22:00,
2013-11-05 16:32:00,59.0,30.0,-100.00,SW,223,3.0,11.0,33,0.00,,,0.00,310.000000,,2013-11-06 00:32:00,
2013-11-05 16:42:00,59.0,30.0,-100.00,SW,223,3.0,11.0,33,0.00,,,0.00,310.000000,,2013-11-06 00:42:00,
2013-11-05 16:52:00,59.0,30.0,-100.00,SW,223,3.0,11.0,33,0.00,,,0.00,310.000000,,2013-11-06 00:52:00,
2013-11-05 17:21:00,51.0,31.0,-100.00,East,94,0.0,6.0,46,0.00,,,0.00,81.000000,,2013-11-06 01:21:00,
2013-11-05 17:32:00,51.0,31.0,-100.00,East,94,0.0,6.0,46,0.00,,,0.00,81.000000,,2013-11-06 01:32:00,
2013-11-05 17:42:00,51.0,31.0,-100.00,East,94,0.0,6.0,46,0.00,,,0.00,81.000000,,2013-11-06 01:42:00,
2013-11-05 17:52:00,51.0,31.0,-100.00,East,94,0.0,6.0,46,0.00,,,0.00,81.000000,,2013-11-06 01:52:00,
2013-11-05 18:23:00,43.0,29.0,-100.00,East,85,0.0,5.0,58,0.00,,,0.00,0.000000,,2013-11-06 02:23:00,
2013-11-05 18:32:00,43.0,29.0,-100.00,East,85,0.0,5.0,58,0.00,,,0.00,0.000000,,2013-11-06 02:32:00,
2013-11-05 18:42:00,43.0,29.0,-100.00,East,85,0.0,5.0,58,0.00,,,0.00,0.000000,,2013-11-06 02:42:00,
2013-11-05 18:52:00,43.0,29.0,-100.00,East,85,0.0,5.0,58,0.00,,,0.00,0.000000,,2013-11-06 02:52:00,
2013-11-05 19:22:00,43.0,29.0,-100.00,East,97,0.0,4.0,57,0.00,,,0.00,0.000000,,2013-11-06 03:22:00,
2013-11-05 19:34:00,43.0,29.0,-100.00,East,97,0.0,4.0,57,0.00,,,0.00,0.000000,,2013-11-06 03:34:00,
2013-11-05 19:43:00,43.0,29.0,-100.00,East,97,0.0,4.0,57,0.00,,,0.00,0.000000,,2013-11-06 03:43:00,
2013-11-05 19:54:00,43.0,29.0,-100.00,East,97,0.0,4.0,57,0.00,,,0.00,0.000000,,2013-11-06 03:54:00,
2013-11-05 20:24:00,44.0,27.0,-100.00,ESE,114,3.0,5.0,50,0.00,,,0.00,0.000000,,2013-11-06 04:24:00,
2013-11-05 20:34:00,44.0,27.0,-100.00,ESE,114,3.0,5.0,50,0.00,,,0.00,0.000000,,2013-11-06 04:34:00,
2013-11-05 20:43:00,44.0,27.0,-100.00,ESE,114,3.0,5.0,50,0.00,,,0.00,0.000000,,2013-11-06 04:43:00,
2013-11-05 20:53:00,44.0,27.0,-100.00,ESE,114,3.0,5.0,50,0.00,,,0.00,0.000000,,2013-11-06 04:53:00,
2013-11-05 21:23:00,43.0,26.0,-100.00,ESE,105,0.0,6.0,51,0.00,,,0.00,0.000000,,2013-11-06 05:23:00,
2013-11-05 21:34:00,43.0,26.0,-100.00,ESE,105,0.0,6.0,51,0.00,,,0.00,0.000000,,2013-11-06 05:34:00,
2013-11-05 21:44:00,43.0,26.0,-100.00,ESE,105,0.0,6.0,51,0.00,,,0.00,0.000000,,2013-11-06 05:44:00,
2013-11-05 21:53:00,43.0,26.0,-100.00,ESE,105,0.0,6.0,51,0.00,,,0.00,0.000000,,2013-11-06 05:53:00,
2013-11-05 22:22:00,42.0,26.0,-100.00,ESE,111,2.0,6.0,53,0.00,,,0.00,0.000000,,2013-11-06 06:22:00,
2013-11-05 22:32:00,42.0,26.0,-100.00,ESE,111,2.0,6.0,53,0.00,,,0.00,0.000000,,2013-11-06 06:32:00,
2013-11-05 22:42:00,42.0,26.0,-100.00,ESE,111,2.0,6.0,53,0.00,,,0.00,0.000000,,2013-11-06 06:42:00,
2013-11-05 22:52:00,42.0,26.0,-100.00,ESE,111,2.0,6.0,53,0.00,,,0.00,0.000000,,2013-11-06 06:52:00,
2013-11-05 23:21:00,43.0,24.0,-100.00,ESE,111,2.0,6.0,47,0.00,,,0.00,0.000000,,2013-11-06 07:21:00,
2013-11-05 23:32:00,43.0,24.0,-100.00,ESE,111,2.0,6.0,47,0.00,,,0.00,0.000000,,2013-11-06 07:32:00,
2013-11-05 23:42:00,43.0,24.0,-100.00,ESE,111,2.0,6.0,47,0.00,,,0.00,0.000000,,2013-11-06 07:42:00,
2013-11-05 23:52:00,43.0,24.0,-100.00,ESE,111,2.0,6.0,47,0.00,,,0.00,0.000000,,2013-11-06 07:52:00,